createdAt,value
2022-10-17T00:00:43.364Z,3.70
2022-10-17T00:03:10.780Z,3.53
2022-10-17T00:05:45.323Z,6.37
2022-10-17T00:08:13.461Z,3.50
2022-10-17T00:10:40.892Z,4.00
2022-10-17T00:13:08.415Z,4.20
2022-10-17T00:15:35.470Z,2.77
2022-10-17T00:18:02.612Z,4.20
2022-10-17T00:20:30.526Z,4.67
2022-10-17T00:22:57.823Z,3.63
2022-10-17T00:25:24.917Z,3.60
2022-10-17T00:27:51.943Z,3.30
2022-10-17T00:30:19.016Z,4.27
2022-10-17T00:32:46.251Z,3.10
2022-10-17T00:35:13.291Z,3.53
2022-10-17T00:37:40.347Z,3.97
2022-10-17T00:40:07.694Z,3.07
2022-10-17T00:42:35.087Z,3.83
2022-10-17T00:45:02.121Z,3.80
2022-10-17T00:47:29.850Z,3.60
2022-10-17T00:49:57.185Z,4.30
2022-10-17T00:52:27.016Z,2.90
2022-10-17T00:55:01.271Z,4.03
2022-10-17T00:57:29.503Z,4.03
2022-10-17T00:59:57.494Z,3.27
2022-10-17T01:02:24.762Z,4.50
2022-10-17T01:04:55.043Z,6.07
2022-10-17T01:07:22.144Z,3.53
2022-10-17T01:09:49.446Z,4.27
2022-10-17T01:12:16.442Z,4.10
2022-10-17T01:14:46.509Z,3.20
2022-10-17T01:17:32.174Z,3.27
2022-10-17T01:20:05.231Z,4.20
2022-10-17T01:22:32.247Z,3.27
2022-10-17T01:25:17.871Z,3.13
2022-10-17T01:27:44.858Z,3.43
2022-10-17T01:30:14.648Z,5.03
2022-10-17T01:32:46.424Z,3.00
2022-10-17T01:35:20.879Z,4.37
2022-10-17T01:37:57.452Z,4.23
2022-10-17T01:40:33.455Z,3.13
2022-10-17T01:43:04.999Z,4.63
2022-10-17T01:45:40.801Z,4.30
2022-10-17T01:48:20.150Z,4.77
2022-10-17T01:50:55.407Z,4.10
2022-10-17T01:53:25.143Z,5.47
2022-10-17T01:55:53.188Z,5.67
2022-10-17T01:58:27.417Z,6.23
2022-10-17T02:00:55.439Z,5.97
2022-10-17T02:03:22.938Z,8.63
2022-10-17T02:05:49.960Z,7.27
2022-10-17T02:08:26.078Z,6.27
2022-10-17T02:11:02.354Z,6.63
2022-10-17T02:13:39.887Z,7.20
2022-10-17T02:16:17.735Z,5.27
2022-10-17T02:18:50.904Z,7.13
2022-10-17T02:21:26.890Z,7.30
2022-10-17T02:24:01.688Z,7.80
2022-10-17T02:26:34.754Z,6.67
2022-10-17T02:29:10.371Z,6.43
2022-10-17T02:31:40.065Z,8.03
2022-10-17T02:34:11.755Z,5.73
2022-10-17T02:36:45.233Z,5.73
2022-10-17T02:39:12.663Z,11.43
2022-10-17T02:41:40.867Z,6.63
2022-10-17T02:44:09.112Z,10.30
2022-10-17T02:46:37.748Z,7.63
2022-10-17T02:49:09.615Z,9.70
2022-10-17T02:51:36.604Z,11.87
2022-10-17T02:54:18.759Z,9.20
2022-10-17T02:56:55.482Z,10.53
2022-10-17T02:59:23.286Z,10.90
2022-10-17T03:01:51.585Z,11.00
2022-10-17T03:04:19.193Z,11.60
2022-10-17T03:06:47.552Z,9.43
2022-10-17T03:09:15.200Z,9.67
2022-10-17T03:11:42.265Z,12.13
2022-10-17T03:14:09.399Z,11.87
2022-10-17T03:16:36.471Z,11.73
2022-10-17T03:19:03.878Z,11.67
2022-10-17T03:21:31.086Z,10.77
2022-10-17T03:23:58.152Z,12.57
2022-10-17T03:26:25.220Z,12.83
2022-10-17T03:28:54.437Z,13.07
2022-10-17T03:31:21.941Z,12.53
2022-10-17T03:33:49.283Z,12.70
2022-10-17T03:36:17.270Z,10.67
2022-10-17T03:38:44.866Z,12.80
2022-10-17T03:41:12.105Z,13.63
2022-10-17T03:43:39.793Z,14.40
2022-10-17T03:46:07.846Z,11.70
2022-10-17T03:48:35.051Z,17.33
2022-10-17T03:51:03.118Z,15.83
2022-10-17T03:53:30.242Z,15.27
2022-10-17T03:55:57.742Z,15.43
2022-10-17T03:58:24.847Z,15.83
2022-10-17T04:00:52.433Z,14.80
2022-10-17T04:03:19.509Z,14.37
2022-10-17T04:05:46.543Z,16.07
2022-10-17T04:08:13.717Z,17.47
2022-10-17T04:10:40.755Z,16.07
2022-10-17T04:13:07.775Z,19.13
2022-10-17T04:15:34.805Z,17.00
2022-10-17T04:18:01.895Z,18.47
2022-10-17T04:20:29.002Z,20.27
2022-10-17T04:22:56.032Z,21.07
2022-10-17T04:25:23.098Z,22.03
2022-10-17T04:27:50.112Z,19.50
2022-10-17T04:30:17.326Z,19.60
2022-10-17T04:32:44.411Z,18.83
2022-10-17T04:35:11.518Z,25.20
2022-10-17T04:37:38.541Z,25.67
2022-10-17T04:40:05.841Z,19.50
2022-10-17T04:42:32.935Z,19.93
2022-10-17T04:45:00.031Z,21.23
2022-10-17T04:47:27.073Z,19.47
2022-10-17T04:49:54.139Z,23.13
2022-10-17T04:52:21.227Z,17.30
2022-10-17T04:54:48.256Z,17.33
2022-10-17T04:57:15.507Z,20.73
2022-10-17T04:59:42.554Z,22.33
2022-10-17T05:02:09.587Z,19.13
2022-10-17T05:04:36.607Z,17.90
2022-10-17T05:07:03.714Z,21.67
2022-10-17T05:09:31.081Z,19.00
2022-10-17T05:11:58.124Z,16.63
2022-10-17T05:14:25.197Z,19.73
2022-10-17T05:16:52.273Z,15.90
2022-10-17T05:19:19.323Z,17.53
2022-10-17T05:21:46.377Z,19.70
2022-10-17T05:24:14.735Z,18.13
2022-10-17T05:26:41.778Z,26.37
2022-10-17T05:29:08.911Z,20.17
2022-10-17T05:31:35.996Z,18.67
2022-10-17T05:34:03.923Z,20.17
2022-10-17T05:36:31.009Z,18.63
2022-10-17T05:38:58.018Z,16.80
2022-10-17T05:41:25.187Z,20.93
2022-10-17T05:43:52.243Z,19.20
2022-10-17T05:46:19.330Z,18.27
2022-10-17T05:48:46.366Z,17.47
2022-10-17T05:51:13.491Z,17.40
2022-10-17T05:53:41.276Z,18.30
2022-10-17T05:56:09.577Z,15.43
2022-10-17T05:58:49.657Z,18.07
2022-10-17T06:01:17.849Z,19.37
2022-10-17T06:03:44.962Z,16.33
2022-10-17T06:06:13.033Z,18.30
2022-10-17T06:08:40.284Z,20.57
2022-10-17T06:11:09.980Z,19.20
2022-10-17T06:13:37.745Z,17.33
2022-10-17T06:16:04.834Z,17.57
2022-10-17T06:18:31.964Z,20.23
2022-10-17T06:21:03.417Z,21.57
2022-10-17T06:23:30.445Z,16.03
2022-10-17T06:26:04.575Z,19.50
2022-10-17T06:28:31.973Z,22.43
2022-10-17T06:30:59.071Z,20.13
2022-10-17T06:33:26.102Z,26.97
2022-10-17T06:35:54.113Z,24.90
2022-10-17T06:38:21.192Z,25.27
2022-10-17T06:40:48.228Z,24.07
2022-10-17T06:43:15.291Z,25.13
2022-10-17T06:45:42.548Z,28.03
2022-10-17T06:48:09.695Z,28.37
2022-10-17T06:50:36.744Z,24.70
2022-10-17T06:53:03.872Z,22.57
2022-10-17T06:55:31.777Z,27.27
2022-10-17T06:57:58.860Z,23.67
2022-10-17T07:00:26.788Z,24.60
2022-10-17T07:02:53.872Z,28.97
2022-10-17T07:05:20.904Z,24.30
2022-10-17T07:07:50.967Z,24.00
2022-10-17T07:10:19.003Z,25.83
2022-10-17T07:12:46.219Z,25.13
2022-10-17T07:15:13.737Z,30.10
2022-10-17T07:17:40.815Z,26.73
2022-10-17T07:20:08.158Z,23.80
2022-10-17T07:22:35.198Z,23.17
2022-10-17T07:25:02.272Z,23.07
2022-10-17T07:27:29.671Z,26.80
2022-10-17T07:29:56.909Z,24.73
2022-10-17T07:32:24.019Z,24.07
2022-10-17T07:34:51.046Z,25.07
2022-10-17T07:37:18.115Z,26.47
2022-10-17T07:39:45.164Z,23.07
2022-10-17T07:42:12.195Z,25.53
2022-10-17T07:44:39.517Z,24.27
2022-10-17T07:47:06.676Z,24.23
2022-10-17T07:49:33.767Z,28.07
2022-10-17T07:52:00.910Z,22.53
2022-10-17T07:54:28.080Z,26.17
2022-10-17T07:56:55.147Z,27.03
2022-10-17T07:59:22.223Z,27.33
2022-10-17T08:01:49.356Z,24.00
2022-10-17T08:04:17.392Z,22.60
2022-10-17T08:06:44.792Z,27.00
2022-10-17T08:09:11.818Z,26.03
2022-10-17T08:11:38.864Z,25.83
2022-10-17T08:14:06.003Z,25.77
2022-10-17T08:16:33.068Z,23.50
2022-10-17T08:19:00.144Z,24.03
2022-10-17T08:21:27.297Z,26.43
2022-10-17T08:23:54.387Z,24.47
2022-10-17T08:26:21.917Z,27.33
2022-10-17T08:28:49.399Z,21.50
2022-10-17T08:31:20.466Z,24.77
2022-10-17T08:33:48.513Z,28.97
2022-10-17T08:36:16.474Z,22.27
2022-10-17T08:38:43.957Z,22.20
2022-10-17T08:41:14.152Z,20.70
2022-10-17T08:44:00.037Z,25.03
2022-10-17T08:46:31.930Z,21.70
2022-10-17T08:48:59.895Z,19.67
2022-10-17T08:51:29.758Z,25.10
2022-10-17T08:54:14.662Z,23.20
2022-10-17T08:56:49.854Z,19.80
2022-10-17T08:59:23.403Z,22.70
2022-10-17T09:01:55.871Z,23.30
2022-10-17T09:04:26.059Z,22.37
2022-10-17T09:07:01.052Z,24.17
2022-10-17T09:09:36.035Z,23.50
2022-10-17T09:12:15.388Z,24.47
2022-10-17T09:15:01.033Z,22.43
2022-10-17T09:17:28.373Z,24.13
2022-10-17T09:20:00.646Z,19.73
2022-10-17T09:22:30.951Z,25.03
2022-10-17T09:24:59.331Z,23.87
2022-10-17T09:27:32.227Z,25.73
2022-10-17T09:30:17.219Z,27.03
2022-10-17T09:33:00.204Z,22.77
2022-10-17T09:35:28.587Z,22.63
2022-10-17T09:37:55.774Z,22.10
2022-10-17T09:40:27.793Z,21.47
2022-10-17T09:42:54.981Z,23.33
2022-10-17T09:45:26.972Z,21.60
2022-10-17T09:47:59.596Z,21.20
2022-10-17T09:50:30.774Z,21.70
2022-10-17T09:53:00.101Z,21.70
2022-10-17T09:55:33.383Z,24.73
2022-10-17T09:58:05.097Z,21.50
2022-10-17T10:00:50.343Z,19.43
2022-10-17T10:03:27.278Z,28.07
2022-10-17T10:06:05.267Z,21.70
2022-10-17T10:08:52.585Z,19.30
2022-10-17T10:11:23.169Z,20.87
2022-10-17T10:13:50.562Z,20.23
2022-10-17T10:16:22.094Z,21.47
2022-10-17T10:18:51.008Z,20.90
2022-10-17T10:21:22.456Z,18.67
2022-10-17T10:24:04.680Z,19.70
2022-10-17T10:26:37.104Z,22.77
2022-10-17T10:29:07.248Z,22.10
2022-10-17T10:31:39.487Z,19.23
2022-10-17T10:34:25.604Z,21.33
2022-10-17T10:36:54.590Z,21.37
2022-10-17T10:39:27.758Z,18.33
2022-10-17T10:41:55.077Z,18.43
2022-10-17T10:44:24.713Z,21.43
2022-10-17T10:47:06.778Z,20.63
2022-10-17T10:49:33.851Z,21.43
2022-10-17T10:52:02.730Z,18.80
2022-10-17T10:54:33.249Z,39.80
2022-10-17T10:57:06.192Z,19.27
2022-10-17T10:59:36.363Z,19.50
2022-10-17T11:02:12.623Z,22.10
2022-10-17T11:04:47.973Z,16.57
2022-10-17T11:07:15.210Z,18.57
2022-10-17T11:10:00.913Z,20.80
2022-10-17T11:12:31.470Z,17.67
2022-10-17T11:15:02.003Z,18.07
2022-10-17T11:17:44.621Z,17.47
2022-10-17T11:20:17.630Z,15.10
2022-10-17T11:22:48.177Z,16.07
2022-10-17T11:25:15.292Z,16.87
2022-10-17T11:27:42.312Z,18.17
2022-10-17T11:30:13.132Z,20.50
2022-10-17T11:32:45.667Z,20.43
2022-10-17T11:35:20.324Z,17.13
2022-10-17T11:37:50.756Z,17.70
2022-10-17T11:40:26.193Z,17.40
2022-10-17T11:43:11.827Z,17.17
2022-10-17T11:45:43.927Z,18.83
2022-10-17T11:48:18.139Z,19.13
2022-10-17T11:53:58.265Z,17.63
2022-10-17T11:56:44.291Z,16.63
2022-10-17T11:59:11.322Z,15.13
2022-10-17T12:01:41.950Z,15.87
2022-10-17T12:04:15.212Z,18.37
2022-10-17T12:06:42.223Z,16.77
2022-10-17T12:09:12.250Z,15.57
2022-10-17T12:11:50.664Z,15.33
2022-10-17T12:14:53.139Z,17.37
2022-10-17T12:17:35.412Z,14.30
2022-10-17T12:20:34.706Z,14.13
2022-10-17T12:23:06.839Z,16.47
2022-10-17T12:28:14.465Z,15.67
2022-10-17T12:31:00.143Z,15.93
2022-10-17T12:33:38.453Z,13.93
2022-10-17T12:36:17.574Z,19.40
2022-10-17T12:38:51.690Z,14.47
2022-10-17T12:41:38.710Z,15.90
2022-10-17T12:44:15.253Z,13.90
2022-10-17T12:46:42.911Z,15.47
2022-10-17T12:49:28.632Z,13.90
2022-10-17T12:52:14.510Z,14.37
2022-10-17T12:54:53.567Z,21.13
2022-10-17T12:57:36.289Z,14.47
2022-10-17T13:00:05.628Z,15.00
2022-10-17T13:02:33.989Z,17.70
2022-10-17T13:05:07.853Z,13.90
2022-10-17T13:07:35.932Z,17.17
2022-10-17T13:10:05.185Z,16.57
2022-10-17T13:12:35.584Z,15.13
2022-10-17T13:15:07.402Z,15.13
2022-10-17T13:17:35.080Z,17.20
2022-10-17T13:20:02.479Z,17.97
2022-10-17T13:22:32.180Z,15.53
2022-10-17T13:25:26.108Z,15.47
2022-10-17T13:28:03.474Z,17.10
2022-10-17T13:30:32.489Z,18.53
2022-10-17T13:33:00.118Z,15.37
2022-10-17T13:35:41.973Z,17.10
2022-10-17T13:38:14.418Z,14.40
2022-10-17T13:40:50.108Z,17.97
2022-10-17T13:43:21.410Z,17.43
2022-10-17T13:45:50.433Z,19.60
2022-10-17T13:48:22.510Z,21.70
2022-10-17T13:50:51.362Z,16.17
2022-10-17T13:53:18.352Z,17.33
2022-10-17T13:56:15.840Z,17.00
2022-10-17T13:58:44.050Z,18.00
2022-10-17T14:01:12.968Z,21.43
2022-10-17T14:03:48.201Z,21.37
2022-10-17T14:06:18.042Z,17.57
2022-10-17T14:09:05.475Z,20.30
2022-10-17T14:11:35.556Z,18.97
2022-10-17T14:14:03.890Z,18.93
2022-10-17T14:16:35.962Z,16.47
2022-10-17T14:19:03.103Z,20.17
2022-10-17T14:21:43.225Z,20.57
2022-10-17T14:24:15.316Z,19.13
2022-10-17T14:26:52.726Z,20.33
2022-10-17T14:29:25.074Z,18.87
2022-10-17T14:31:57.801Z,21.37
2022-10-17T14:34:28.392Z,19.27
2022-10-17T14:36:55.550Z,23.00
2022-10-17T14:39:27.077Z,19.87
2022-10-17T14:41:54.640Z,23.53
2022-10-17T14:44:29.664Z,20.90
2022-10-17T14:47:30.891Z,19.87
2022-10-17T14:50:04.040Z,21.47
2022-10-17T14:52:32.486Z,24.20
2022-10-17T14:55:01.035Z,20.43
2022-10-17T14:57:34.402Z,22.70
2022-10-17T15:00:01.430Z,19.70
2022-10-17T15:02:30.084Z,20.30
2022-10-17T15:04:57.625Z,24.97
2022-10-17T15:07:24.756Z,24.13
2022-10-17T15:09:52.643Z,21.93
2022-10-17T15:12:22.131Z,20.47
2022-10-17T15:14:49.374Z,23.93
2022-10-17T15:17:18.892Z,23.50
2022-10-17T15:19:45.941Z,22.80
2022-10-17T15:22:13.074Z,25.17
2022-10-17T15:24:40.140Z,25.20
2022-10-17T15:27:16.474Z,23.87
2022-10-17T15:29:43.542Z,20.27
2022-10-17T15:32:10.631Z,20.27
2022-10-17T15:34:37.835Z,21.33
2022-10-17T15:37:05.594Z,25.23
2022-10-17T15:39:32.803Z,24.40
2022-10-17T15:41:59.995Z,22.57
2022-10-17T15:44:27.053Z,23.43
2022-10-17T15:46:54.538Z,27.10
2022-10-17T15:49:21.617Z,23.20
2022-10-17T15:51:54.369Z,20.87
2022-10-17T15:54:22.347Z,20.57
2022-10-17T15:56:53.534Z,24.57
2022-10-17T15:59:22.775Z,20.43
2022-10-17T16:01:49.841Z,21.27
2022-10-17T16:04:18.408Z,20.93
2022-10-17T16:06:45.553Z,27.10
2022-10-17T16:09:12.663Z,24.53
2022-10-17T16:11:40.843Z,28.63
2022-10-17T16:16:50.503Z,24.90
2022-10-17T16:19:17.638Z,24.40
2022-10-17T16:21:44.770Z,22.13
2022-10-17T16:24:12.464Z,23.13
2022-10-17T16:26:40.509Z,21.87
2022-10-17T16:29:09.248Z,21.27
2022-10-17T16:31:37.814Z,27.67
2022-10-17T16:34:06.420Z,22.23
2022-10-17T16:36:33.691Z,28.00
2022-10-17T16:39:00.954Z,23.10
2022-10-17T16:41:30.454Z,21.40
2022-10-17T16:43:58.995Z,24.13
2022-10-17T16:46:26.920Z,22.63
2022-10-17T16:48:54.336Z,29.43
2022-10-17T16:51:21.482Z,23.63
2022-10-17T16:53:50.236Z,21.53
2022-10-17T16:56:18.772Z,23.73
2022-10-17T16:58:46.272Z,24.00
2022-10-17T17:01:23.480Z,22.27
2022-10-17T17:03:51.039Z,22.13
2022-10-17T17:06:22.138Z,25.70
2022-10-17T17:08:49.160Z,28.67
2022-10-17T17:11:17.549Z,28.53
2022-10-17T17:13:44.904Z,26.17
2022-10-17T17:16:13.281Z,26.13
2022-10-17T17:18:40.349Z,30.13
2022-10-17T17:21:09.070Z,33.93
2022-10-17T17:23:37.081Z,21.60
2022-10-17T17:26:05.677Z,26.60
2022-10-17T17:28:33.407Z,28.17
2022-10-17T17:31:00.480Z,23.53
2022-10-17T17:33:29.757Z,26.33
2022-10-17T17:35:58.040Z,29.17
2022-10-17T17:38:25.253Z,28.50
2022-10-17T17:40:52.582Z,25.30
2022-10-17T17:43:19.717Z,25.57
2022-10-17T17:45:46.800Z,28.00
2022-10-17T17:48:14.016Z,25.77
2022-10-17T17:50:41.974Z,27.40
2022-10-17T17:53:14.166Z,22.77
2022-10-17T17:55:41.432Z,24.57
2022-10-17T17:58:08.498Z,23.23
2022-10-17T18:00:36.107Z,22.93
2022-10-17T18:03:03.300Z,28.53
2022-10-17T18:05:30.679Z,30.20
2022-10-17T18:07:57.794Z,29.50
2022-10-17T18:10:24.860Z,24.90
2022-10-17T18:12:52.157Z,28.10
2022-10-17T18:15:19.190Z,23.83
2022-10-17T18:17:46.241Z,26.80
2022-10-17T18:20:13.437Z,25.10
2022-10-17T18:22:40.499Z,27.13
2022-10-17T18:25:07.703Z,27.77
2022-10-17T18:27:35.007Z,26.73
2022-10-17T18:30:02.246Z,27.53
2022-10-17T18:32:31.402Z,22.47
2022-10-17T18:34:58.767Z,29.87
2022-10-17T18:37:25.871Z,27.30
2022-10-17T18:39:55.237Z,29.93
2022-10-17T18:42:22.299Z,27.23
2022-10-17T18:44:49.861Z,24.83
2022-10-17T18:47:16.915Z,22.80
2022-10-17T18:49:44.058Z,30.20
2022-10-17T18:52:11.143Z,28.77
2022-10-17T18:54:38.221Z,31.87
2022-10-17T18:57:05.488Z,24.13
2022-10-17T18:59:33.060Z,28.40
2022-10-17T19:02:00.157Z,30.53
2022-10-17T19:04:27.325Z,28.50
2022-10-17T19:06:54.351Z,29.20
2022-10-17T19:09:21.495Z,25.37
2022-10-17T19:11:48.564Z,30.53
2022-10-17T19:14:15.755Z,28.83
2022-10-17T19:16:44.684Z,26.47
2022-10-17T19:19:12.965Z,29.10
2022-10-17T19:21:40.431Z,26.10
2022-10-17T19:24:08.966Z,26.07
2022-10-17T19:26:36.912Z,26.67
2022-10-17T19:29:04.586Z,30.73
2022-10-17T19:31:32.195Z,26.63
2022-10-17T19:33:59.732Z,29.40
2022-10-17T19:36:30.767Z,26.50
2022-10-17T19:39:01.279Z,29.53
2022-10-17T19:41:28.677Z,22.67
2022-10-17T19:43:56.116Z,31.53
2022-10-17T19:46:24.149Z,25.70
2022-10-17T19:48:51.840Z,30.43
2022-10-17T19:51:19.753Z,26.20
2022-10-17T19:53:47.392Z,25.23
2022-10-17T19:56:18.449Z,24.33
2022-10-17T19:58:46.546Z,30.23
2022-10-17T20:01:15.230Z,30.17
2022-10-17T20:03:42.507Z,26.27
2022-10-17T20:06:09.947Z,29.00
2022-10-17T20:08:38.136Z,28.97
2022-10-17T20:11:09.506Z,25.27
2022-10-17T20:13:37.104Z,27.77
2022-10-17T20:16:04.739Z,28.47
2022-10-17T20:18:31.834Z,28.20
2022-10-17T20:21:03.270Z,25.33
2022-10-17T20:23:30.310Z,29.57
2022-10-17T20:26:25.476Z,29.07
2022-10-17T20:28:52.943Z,24.93
2022-10-17T20:31:20.151Z,29.13
2022-10-17T20:33:47.252Z,28.43
2022-10-17T20:36:15.039Z,26.10
2022-10-17T20:38:42.047Z,27.77
2022-10-17T20:41:09.943Z,27.97
2022-10-17T20:43:37.517Z,28.33
2022-10-17T20:46:21.938Z,28.77
2022-10-17T20:48:54.108Z,28.77
2022-10-17T20:51:21.754Z,25.03
2022-10-17T20:53:49.183Z,29.80
2022-10-17T20:56:23.533Z,31.20
2022-10-17T20:58:51.898Z,27.73
2022-10-17T21:01:19.025Z,28.57
2022-10-17T21:03:46.650Z,28.97
2022-10-17T21:06:14.304Z,25.83
2022-10-17T21:08:41.506Z,28.00
2022-10-17T21:11:12.474Z,31.73
2022-10-17T21:13:39.946Z,24.33
2022-10-17T21:16:27.303Z,25.00
2022-10-17T21:18:54.568Z,28.23
2022-10-17T21:21:23.519Z,24.47
2022-10-17T21:23:51.036Z,30.53
2022-10-17T21:26:18.550Z,26.40
2022-10-17T21:28:46.389Z,22.70
2022-10-17T21:31:23.744Z,24.17
2022-10-17T21:33:52.119Z,24.63
2022-10-17T21:36:19.572Z,23.47
2022-10-17T21:38:47.720Z,20.50
2022-10-17T21:41:15.801Z,23.90
2022-10-17T21:43:43.292Z,27.00
2022-10-17T21:46:12.162Z,22.13
2022-10-17T21:48:39.498Z,25.63
2022-10-17T21:51:07.962Z,25.67
2022-10-17T21:53:35.464Z,28.70
2022-10-17T21:56:03.403Z,28.00
2022-10-17T21:58:30.504Z,23.03
2022-10-17T22:01:07.990Z,27.70
2022-10-17T22:03:35.711Z,21.63
2022-10-17T22:06:13.022Z,24.63
2022-10-17T22:08:50.868Z,26.87
2022-10-17T22:11:20.401Z,28.20
2022-10-17T22:13:47.470Z,24.53
2022-10-17T22:16:15.598Z,32.03
2022-10-17T22:18:43.166Z,21.93
2022-10-17T22:21:13.102Z,25.83
2022-10-17T22:23:41.148Z,26.77
2022-10-17T22:26:08.610Z,27.50
2022-10-17T22:28:36.156Z,29.03
2022-10-17T22:31:03.839Z,26.50
2022-10-17T22:33:34.312Z,24.03
2022-10-17T22:36:01.582Z,30.60
2022-10-17T22:38:28.982Z,29.33
2022-10-17T22:40:56.002Z,26.87
2022-10-17T22:43:23.195Z,29.80
2022-10-17T22:45:57.049Z,31.00
2022-10-17T22:48:24.603Z,29.60
2022-10-17T22:50:52.380Z,29.40
2022-10-17T22:53:23.903Z,24.37
2022-10-17T22:55:51.888Z,25.97
2022-10-17T22:58:18.937Z,27.37
2022-10-17T23:00:45.967Z,28.57
2022-10-17T23:03:13.008Z,28.93
2022-10-17T23:05:40.319Z,28.17
2022-10-17T23:08:07.366Z,30.23
2022-10-17T23:10:34.499Z,26.57
2022-10-17T23:13:01.558Z,27.00
2022-10-17T23:15:28.585Z,26.30
2022-10-17T23:17:55.648Z,23.23
2022-10-17T23:20:22.663Z,31.97
2022-10-17T23:22:49.733Z,26.30
2022-10-17T23:25:16.833Z,26.13
2022-10-17T23:27:43.914Z,28.07
2022-10-17T23:30:14.216Z,24.33
2022-10-17T23:32:41.707Z,28.43
2022-10-17T23:35:09.511Z,28.17
2022-10-17T23:37:36.669Z,35.77
2022-10-17T23:40:04.184Z,26.73
2022-10-17T23:42:31.369Z,29.47
2022-10-17T23:44:58.405Z,25.43
2022-10-17T23:47:25.475Z,26.80
2022-10-17T23:49:52.536Z,28.30
2022-10-17T23:52:19.571Z,30.03
2022-10-17T23:54:46.624Z,28.73
2022-10-17T23:57:13.690Z,26.20
2022-10-17T23:59:40.793Z,23.67
